Time;durP1;ratioP1;P1;durP2;ratioP2;P2;SDS_P1;SDS_P2;PMS_P1;PMS_P2;Temp;Humidity;BMP_temperature;BMP_pressure;BME280_temperature;BME280_humidity;BME280_pressure;Samples;Min_cycle;Max_cycle;Signal;HPM_P1;HPM_P2
2023/07/16 00:01:09;;;;;;;5.00;0.80;;;;;;;16.19;100.00;100183.98;105318;1258;61670;-48
2023/07/16 00:03:36;;;;;;;1.40;0.90;;;;;;;16.18;100.00;100182.79;105350;1253;60506;-48
2023/07/16 00:06:03;;;;;;;1.70;0.90;;;;;;;16.16;100.00;100182.20;105283;1254;72566;-48
2023/07/16 00:08:31;;;;;;;1.60;0.80;;;;;;;16.13;100.00;100185.64;105398;1257;66521;-49
2023/07/16 00:10:58;;;;;;;0.90;0.80;;;;;;;16.13;100.00;100187.29;105485;1253;73097;-49
2023/07/16 00:13:26;;;;;;;3.10;0.90;;;;;;;16.12;100.00;100189.55;105333;1253;61666;-48
2023/07/16 00:15:53;;;;;;;4.10;1.00;;;;;;;16.10;100.00;100189.86;105316;1253;60548;-47
2023/07/16 00:18:20;;;;;;;2.50;0.80;;;;;;;16.11;100.00;100190.33;105358;1253;72600;-48
2023/07/16 00:20:48;;;;;;;2.50;0.80;;;;;;;16.12;100.00;100187.52;105340;1259;67555;-49
2023/07/16 00:23:15;;;;;;;1.70;0.70;;;;;;;16.13;100.00;100185.48;105407;1253;73077;-46
2023/07/16 00:25:42;;;;;;;2.10;0.80;;;;;;;16.14;100.00;100185.08;105330;1255;60617;-46
2023/07/16 00:28:11;;;;;;;2.30;1.00;;;;;;;16.12;100.00;100189.54;105372;1254;60559;-47
2023/07/16 00:30:39;;;;;;;2.20;1.10;;;;;;;16.08;100.00;100191.08;105488;1255;73928;-48
2023/07/16 00:33:07;;;;;;;2.00;0.90;;;;;;;16.06;100.00;100189.58;105560;1253;65910;-47
2023/07/16 00:35:34;;;;;;;2.50;0.90;;;;;;;16.05;100.00;100190.17;105329;1258;72534;-47
2023/07/16 00:38:02;;;;;;;5.30;2.10;;;;;;;16.05;100.00;100189.84;105378;1257;60548;-48
2023/07/16 00:40:29;;;;;;;2.00;1.00;;;;;;;16.00;100.00;100187.75;105333;1260;60477;-47
2023/07/16 00:42:57;;;;;;;1.30;1.10;;;;;;;15.97;100.00;100186.33;105375;1254;73888;-48
2023/07/16 00:45:24;;;;;;;3.60;1.10;;;;;;;15.96;100.00;100184.79;105397;1253;66809;-49
2023/07/16 00:47:51;;;;;;;3.70;0.90;;;;;;;15.94;100.00;100185.23;106401;1255;72911;-48
2023/07/16 00:50:19;;;;;;;2.60;0.90;;;;;;;15.90;100.00;100182.08;105264;1253;62005;-47
2023/07/16 00:52:46;;;;;;;1.50;0.80;;;;;;;15.86;100.00;100181.23;105154;1260;60408;-47
2023/07/16 00:55:14;;;;;;;1.30;1.10;;;;;;;15.85;100.00;100177.49;105223;1258;73787;-47
2023/07/16 00:57:41;;;;;;;3.10;0.90;;;;;;;15.85;100.00;100176.74;105243;1261;66907;-48
2023/07/16 01:00:10;;;;;;;2.90;0.90;;;;;;;15.88;100.00;100179.52;105154;1261;72661;-48
2023/07/16 01:02:37;;;;;;;4.10;1.00;;;;;;;15.90;100.00;100178.44;105880;1255;61912;-48
2023/07/16 01:05:05;;;;;;;1.70;0.90;;;;;;;15.91;100.00;100180.56;105143;1253;60627;-48
2023/07/16 01:07:32;;;;;;;3.70;0.90;;;;;;;15.89;100.00;100179.59;105458;1258;73739;-48
2023/07/16 01:10:02;;;;;;;1.10;0.90;;;;;;;15.88;100.00;100179.11;105338;1259;68284;-48
2023/07/16 01:12:29;;;;;;;1.90;1.00;;;;;;;15.89;100.00;100181.27;105824;1258;72486;-48
2023/07/16 01:14:57;;;;;;;1.30;0.80;;;;;;;15.87;100.00;100184.25;105265;1261;61401;-52
2023/07/16 01:17:24;;;;;;;3.00;0.90;;;;;;;15.86;100.00;100181.57;108883;1253;58840;-52
2023/07/16 01:19:52;;;;;;;0.90;0.80;;;;;;;15.84;100.00;100182.05;108994;1253;73776;-50
2023/07/16 01:22:34;;;;;;;4.10;1.10;;;;;;;15.81;100.00;100184.64;109039;1253;67873;-49
2023/07/16 01:25:36;;;;;;;2.30;0.90;;;;;;;15.79;100.00;100184.77;108983;1256;72337;-49
2023/07/16 01:28:15;;;;;;;9.10;1.00;;;;;;;15.80;100.00;100178.77;108809;1253;64570;-49
2023/07/16 01:30:43;;;;;;;5.20;1.00;;;;;;;15.80;100.00;100178.54;108889;1253;58838;-49
2023/07/16 01:33:12;;;;;;;6.70;1.00;;;;;;;15.82;100.00;100180.22;108902;1253;73512;-49
2023/07/16 01:35:39;;;;;;;8.10;1.20;;;;;;;15.82;100.00;100183.79;108938;1253;67902;-49
2023/07/16 01:38:09;;;;;;;2.40;0.90;;;;;;;15.84;100.00;100181.16;108964;1253;72668;-51
2023/07/16 01:40:36;;;;;;;6.10;0.90;;;;;;;15.87;100.00;100180.27;108904;1253;60506;-49
2023/07/16 01:43:04;;;;;;;2.60;0.80;;;;;;;15.90;100.00;100181.02;108942;1253;59567;-49
2023/07/16 01:45:31;;;;;;;1.60;1.00;;;;;;;15.92;100.00;100177.80;108751;1253;73739;-49
2023/07/16 01:48:02;;;;;;;1.20;0.80;;;;;;;15.94;100.00;100179.33;108795;1253;67953;-49
2023/07/16 01:50:29;;;;;;;2.90;1.00;;;;;;;15.95;100.00;100177.05;108704;1254;71216;-49
2023/07/16 01:52:57;;;;;;;3.70;0.80;;;;;;;15.96;100.00;100178.65;108829;1256;61591;-49
2023/07/16 01:55:25;;;;;;;1.40;0.80;;;;;;;15.96;100.00;100179.00;107317;1253;60579;-49
2023/07/16 01:57:52;;;;;;;0.90;0.80;;;;;;;15.95;100.00;100177.95;105085;1261;73793;-49
2023/07/16 02:00:20;;;;;;;1.30;0.90;;;;;;;15.96;100.00;100175.56;105123;1253;68213;-48
2023/07/16 02:02:50;;;;;;;1.10;0.90;;;;;;;15.96;100.00;100174.44;104883;1253;71405;-48
2023/07/16 02:05:18;;;;;;;5.10;1.10;;;;;;;15.96;100.00;100175.93;108803;1255;59987;-48
2023/07/16 02:07:45;;;;;;;3.00;0.90;;;;;;;15.92;100.00;100174.03;105309;1253;60688;-47
2023/07/16 02:10:12;;;;;;;3.30;1.10;;;;;;;15.88;100.00;100172.45;104578;1258;74258;-48
2023/07/16 02:12:40;;;;;;;5.20;1.10;;;;;;;15.83;100.00;100172.02;105075;1258;67604;-48
2023/07/16 02:15:07;;;;;;;3.70;1.10;;;;;;;15.75;100.00;100177.77;105226;1255;71574;-48
2023/07/16 02:17:35;;;;;;;1.00;0.90;;;;;;;15.67;100.00;100184.27;105389;1253;61600;-48
2023/07/16 02:20:05;;;;;;;3.70;0.90;;;;;;;15.59;100.00;100184.58;105114;1258;60555;-47
2023/07/16 02:22:34;;;;;;;3.40;0.70;;;;;;;15.52;100.00;100185.52;107677;1253;73749;-48
2023/07/16 02:25:02;;;;;;;3.20;0.90;;;;;;;15.50;100.00;100188.70;106051;1253;68332;-48
2023/07/16 02:27:30;;;;;;;4.80;1.10;;;;;;;15.49;100.00;100188.20;105088;1258;73188;-49
2023/07/16 02:29:57;;;;;;;0.80;0.80;;;;;;;15.50;100.00;100188.34;105149;1255;62141;-48
2023/07/16 02:32:25;;;;;;;3.00;0.80;;;;;;;15.50;100.00;100187.61;105069;1253;60321;-48
2023/07/16 02:34:52;;;;;;;0.90;0.70;;;;;;;15.51;100.00;100182.14;106180;1260;73748;-48
2023/07/16 02:37:19;;;;;;;2.30;0.70;;;;;;;15.51;100.00;100181.77;105100;1258;66421;-48
2023/07/16 02:39:47;;;;;;;1.50;0.80;;;;;;;15.51;100.00;100183.39;105143;1256;71911;-47
2023/07/16 02:42:15;;;;;;;3.10;0.90;;;;;;;15.49;100.00;100179.02;105106;1258;61057;-48
2023/07/16 02:44:44;;;;;;;1.40;0.70;;;;;;;15.45;100.00;100177.63;105235;1253;60507;-48
2023/07/16 02:47:12;;;;;;;2.40;0.80;;;;;;;15.45;100.00;100182.88;105701;1253;72704;-48
2023/07/16 02:49:40;;;;;;;1.50;0.90;;;;;;;15.47;100.00;100180.39;105310;1254;69781;-48
2023/07/16 02:52:07;;;;;;;2.50;0.80;;;;;;;15.51;100.00;100180.50;105123;1253;73170;-49
2023/07/16 02:54:35;;;;;;;3.80;0.90;;;;;;;15.55;100.00;100184.86;105197;1256;62651;-50
2023/07/16 02:57:03;;;;;;;1.60;0.70;;;;;;;15.57;100.00;100181.96;105965;1253;60344;-48
2023/07/16 02:59:31;;;;;;;6.60;0.80;;;;;;;15.57;100.00;100183.12;105313;1254;73879;-49
2023/07/16 03:01:58;;;;;;;1.00;0.80;;;;;;;15.54;100.00;100183.08;105122;1253;67192;-50
2023/07/16 03:04:25;;;;;;;3.30;1.20;;;;;;;15.54;100.00;100180.95;105250;1258;72425;-50
2023/07/16 03:06:53;;;;;;;2.20;0.80;;;;;;;15.56;100.00;100183.70;105140;1258;61599;-48
2023/07/16 03:09:22;;;;;;;1.20;0.80;;;;;;;15.59;100.00;100180.02;105339;1253;60419;-49
2023/07/16 03:11:49;;;;;;;3.20;0.80;;;;;;;15.63;100.00;100181.58;105366;1253;72739;-49
2023/07/16 03:14:18;;;;;;;3.70;0.80;;;;;;;15.68;100.00;100183.48;105356;1261;67058;-49
2023/07/16 03:16:45;;;;;;;2.50;0.90;;;;;;;15.72;100.00;100180.69;105292;1256;71420;-48
2023/07/16 03:19:14;;;;;;;1.60;0.90;;;;;;;15.75;100.00;100185.55;105922;1253;61661;-48
2023/07/16 03:21:41;;;;;;;1.40;0.70;;;;;;;15.75;100.00;100181.17;105505;1253;60442;-49
2023/07/16 03:24:09;;;;;;;0.90;0.80;;;;;;;15.74;100.00;100184.52;105528;1258;73791;-49
2023/07/16 03:26:36;;;;;;;1.80;0.80;;;;;;;15.71;100.00;100185.61;105550;1259;68309;-49
2023/07/16 03:29:04;;;;;;;2.70;0.70;;;;;;;15.74;100.00;100190.14;105188;1261;72627;-48
2023/07/16 03:31:31;;;;;;;2.10;0.70;;;;;;;15.77;100.00;100185.45;105477;1254;62735;-49
2023/07/16 03:33:58;;;;;;;0.90;0.70;;;;;;;15.80;100.00;100187.63;105420;1255;60657;-48
2023/07/16 03:38:43;;;;;;;1.70;0.90;;;;;;;15.87;100.00;100195.45;102327;1295;601276;-49
2023/07/16 03:41:11;;;;;;;2.10;1.00;;;;;;;15.91;100.00;100195.40;104573;1265;60057;-49
2023/07/16 03:43:38;;;;;;;1.40;0.80;;;;;;;15.97;100.00;100190.14;104600;1264;59350;-47
2023/07/16 03:46:15;;;;;;;3.40;0.90;;;;;;;16.06;100.00;100196.46;104579;1266;72339;-46
2023/07/16 03:48:44;;;;;;;2.30;1.10;;;;;;;16.13;100.00;100192.89;104541;1267;66355;-48
2023/07/16 03:51:12;;;;;;;2.50;0.80;;;;;;;16.20;100.00;100192.65;104879;1267;207905;-48
2023/07/16 03:53:39;;;;;;;1.00;0.90;;;;;;;16.26;100.00;100190.04;104851;1264;61705;-48
2023/07/16 03:56:06;;;;;;;7.20;0.90;;;;;;;16.36;100.00;100193.63;104679;1264;60000;-49
2023/07/16 03:58:35;;;;;;;1.60;0.70;;;;;;;16.44;100.00;100197.76;104629;1269;71564;-49
2023/07/16 04:01:02;;;;;;;1.60;0.70;;;;;;;16.52;100.00;100192.89;104529;1272;67332;-48
2023/07/16 04:03:29;;;;;;;2.20;0.60;;;;;;;16.60;100.00;100197.11;104579;1270;72705;-48
2023/07/16 04:06:04;;;;;;;0.70;0.70;;;;;;;16.68;100.00;100193.49;104507;1263;60624;-48
2023/07/16 04:08:32;;;;;;;2.90;0.80;;;;;;;16.77;100.00;100190.54;104804;1269;60216;-49
2023/07/16 04:10:59;;;;;;;2.60;0.80;;;;;;;16.86;100.00;100188.11;104670;1269;72500;-49
2023/07/16 04:13:26;;;;;;;1.10;0.80;;;;;;;16.95;100.00;100185.52;104497;1263;67541;-50
2023/07/16 04:15:55;;;;;;;0.90;0.60;;;;;;;17.04;100.00;100189.94;104609;1266;70919;-48
2023/07/16 04:18:24;;;;;;;2.20;1.00;;;;;;;17.15;100.00;100189.96;104739;1264;61999;-49
2023/07/16 04:20:51;;;;;;;2.90;0.60;;;;;;;17.25;100.00;100187.83;104095;1264;60018;-50
2023/07/16 04:23:18;;;;;;;0.50;0.50;;;;;;;17.35;100.00;100193.21;104406;1270;72964;-49
2023/07/16 04:25:46;;;;;;;1.30;0.70;;;;;;;17.47;100.00;100193.91;104670;1267;66315;-47
2023/07/16 04:28:13;;;;;;;0.90;0.70;;;;;;;17.57;100.00;100191.94;104557;1271;72688;-48
2023/07/16 04:30:40;;;;;;;2.50;0.80;;;;;;;17.69;100.00;100195.94;104629;1269;61643;-49
2023/07/16 04:33:09;;;;;;;2.60;0.60;;;;;;;17.81;100.00;100198.94;104824;1264;60030;-47
2023/07/16 04:35:36;;;;;;;3.80;1.00;;;;;;;17.92;100.00;100197.40;104599;1264;72980;-50
2023/07/16 04:38:04;;;;;;;3.00;1.10;;;;;;;18.04;100.00;100198.18;104584;1269;66772;-48
2023/07/16 04:40:31;;;;;;;1.00;0.90;;;;;;;18.16;100.00;100198.23;104611;1269;72612;-47
2023/07/16 04:42:58;;;;;;;1.60;0.80;;;;;;;18.28;100.00;100194.09;104625;1267;59939;-48
2023/07/16 04:45:25;;;;;;;1.40;1.30;;;;;;;18.39;100.00;100198.48;104438;1263;59758;-48
2023/07/16 04:47:53;;;;;;;1.30;1.10;;;;;;;18.50;100.00;100198.02;104669;1269;72459;-50
2023/07/16 04:50:20;;;;;;;1.20;1.00;;;;;;;18.61;100.00;100198.73;104232;1264;66860;-50
2023/07/16 04:52:48;;;;;;;1.20;0.90;;;;;;;18.72;100.00;100199.21;104518;1263;72448;-49
2023/07/16 04:55:15;;;;;;;1.30;0.70;;;;;;;18.81;100.00;100197.21;104564;1271;60472;-51
2023/07/16 04:57:42;;;;;;;3.20;0.90;;;;;;;18.90;100.00;100197.24;104532;1264;59851;-51
2023/07/16 05:00:10;;;;;;;1.80;0.80;;;;;;;19.01;100.00;100197.35;104188;1264;72983;-49
2023/07/16 05:02:38;;;;;;;2.10;0.80;;;;;;;19.11;100.00;100196.20;108427;1263;67947;-50
2023/07/16 05:05:06;;;;;;;0.90;0.70;;;;;;;19.21;100.00;100197.44;108409;1263;70087;-49
2023/07/16 05:07:33;;;;;;;0.70;0.60;;;;;;;19.32;100.00;100195.31;108381;1265;60067;-50
2023/07/16 05:10:01;;;;;;;2.30;0.80;;;;;;;19.43;100.00;100195.90;108426;1263;60009;-52
2023/07/16 05:12:28;;;;;;;0.90;0.80;;;;;;;19.54;100.00;100193.27;108389;1263;73977;-50
2023/07/16 05:14:55;;;;;;;1.40;0.80;;;;;;;19.65;100.00;100192.38;108433;1263;68168;-50
2023/07/16 05:17:23;;;;;;;2.00;0.70;;;;;;;19.76;100.00;100190.20;108472;1263;71850;-50
2023/07/16 05:19:50;;;;;;;2.90;0.70;;;;;;;19.87;100.00;100193.15;108402;1263;59169;-50
2023/07/16 05:22:18;;;;;;;1.50;0.70;;;;;;;19.99;100.00;100192.73;104751;1264;60205;-46
2023/07/16 05:24:45;;;;;;;4.00;0.60;;;;;;;20.10;100.00;100192.04;104216;1264;73178;-48
2023/07/16 05:27:12;;;;;;;1.00;0.70;;;;;;;20.21;100.00;100184.58;104477;1270;66794;-47
2023/07/16 05:29:40;;;;;;;1.50;0.70;;;;;;;20.31;100.00;100186.46;104859;1266;72128;-48
2023/07/16 05:32:07;;;;;;;0.60;0.50;;;;;;;20.41;100.00;100189.34;104535;1271;59757;-49
2023/07/16 05:34:35;;;;;;;0.60;0.60;;;;;;;20.51;100.00;100186.19;107269;1264;59678;-49
2023/07/16 05:37:03;;;;;;;0.60;0.50;;;;;;;20.60;100.00;100187.98;104172;1269;73080;-49
2023/07/16 05:39:30;;;;;;;1.60;0.60;;;;;;;20.68;100.00;100187.83;104282;1269;67616;-48
2023/07/16 05:41:57;;;;;;;0.80;0.70;;;;;;;20.76;100.00;100189.71;104650;1263;71976;-47
2023/07/16 05:44:25;;;;;;;1.30;0.70;;;;;;;20.84;100.00;100188.15;104782;1265;60102;-47
2023/07/16 05:46:52;;;;;;;1.10;0.50;;;;;;;20.92;100.00;100188.04;104986;1262;59717;-47
2023/07/16 05:49:19;;;;;;;1.40;0.70;;;;;;;20.98;100.00;100185.62;105064;1257;71813;-48
2023/07/16 05:51:47;;;;;;;1.60;1.00;;;;;;;21.05;100.00;100184.52;104849;1257;67522;-48
2023/07/16 05:54:15;;;;;;;1.20;0.70;;;;;;;21.11;100.00;100184.92;105794;1262;71686;-48
2023/07/16 05:56:42;;;;;;;1.40;0.60;;;;;;;21.18;100.00;100183.80;104780;1260;59927;-48
2023/07/16 05:59:09;;;;;;;1.10;0.50;;;;;;;21.26;100.00;100180.79;104803;1262;59651;-49
2023/07/16 06:01:36;;;;;;;3.50;0.40;;;;;;;21.33;100.00;100179.73;104633;1257;73070;-48
2023/07/16 06:04:04;;;;;;;1.20;0.40;;;;;;;21.42;100.00;100177.20;104743;1258;68378;-48
2023/07/16 06:06:31;;;;;;;5.40;0.80;;;;;;;21.49;100.00;100173.10;105023;1260;72649;-49
2023/07/16 06:08:59;;;;;;;3.60;0.80;;;;;;;21.57;100.00;100170.39;104791;1257;59759;-47
2023/07/16 06:11:26;;;;;;;1.20;0.50;;;;;;;21.65;100.00;100163.49;104717;1260;59668;-47
2023/07/16 06:13:54;;;;;;;0.80;0.50;;;;;;;21.72;100.00;100163.73;104848;1258;73647;-49
2023/07/16 06:16:22;;;;;;;0.80;0.70;;;;;;;21.80;100.00;100165.44;104775;1260;67855;-49
2023/07/16 06:18:49;;;;;;;0.80;0.60;;;;;;;21.86;100.00;100164.69;104794;1262;73754;-49
2023/07/16 06:21:17;;;;;;;1.70;0.60;;;;;;;21.94;100.00;100166.23;104859;1259;59749;-49
2023/07/16 06:23:44;;;;;;;0.60;0.30;;;;;;;22.00;100.00;100158.52;104756;1263;59687;-51
2023/07/16 06:26:11;;;;;;;0.30;0.30;;;;;;;22.07;100.00;100156.27;104856;1257;72916;-49
2023/07/16 06:28:39;;;;;;;0.80;0.40;;;;;;;22.15;100.00;100150.23;105162;1263;67640;-49
2023/07/16 06:31:06;;;;;;;1.10;0.40;;;;;;;22.22;100.00;100143.73;105214;1258;72814;-50
2023/07/16 06:33:34;;;;;;;0.70;0.40;;;;;;;22.31;100.00;100142.06;104745;1256;59689;-51
2023/07/16 06:36:02;;;;;;;1.10;0.40;;;;;;;22.39;100.00;100140.21;104867;1257;59826;-50
2023/07/16 06:38:29;;;;;;;1.70;0.30;;;;;;;22.45;100.00;100138.39;104552;1257;71611;-50
2023/07/16 06:40:57;;;;;;;0.50;0.40;;;;;;;22.50;100.00;100141.15;104866;1257;67863;-50
2023/07/16 06:43:24;;;;;;;0.60;0.40;;;;;;;22.57;100.00;100139.25;104756;1257;71429;-50
2023/07/16 06:45:51;;;;;;;0.70;0.40;;;;;;;22.64;100.00;100135.31;104621;1257;60067;-51
2023/07/16 06:48:19;;;;;;;2.30;0.50;;;;;;;22.70;100.00;100140.62;104683;1256;61126;-50
2023/07/16 06:50:46;;;;;;;0.40;0.30;;;;;;;22.77;100.00;100138.36;104677;1257;71764;-51
2023/07/16 06:53:14;;;;;;;1.10;1.00;;;;;;;22.84;100.00;100140.84;104558;1256;65491;-50
2023/07/16 06:55:41;;;;;;;1.10;0.40;;;;;;;22.88;100.00;100137.33;104477;1261;72947;-49
2023/07/16 06:58:13;;;;;;;0.50;0.30;;;;;;;22.91;100.00;100132.41;104631;1257;60041;-50
2023/07/16 07:00:40;;;;;;;0.80;0.30;;;;;;;22.96;100.00;100133.19;104505;1256;60090;-50
2023/07/16 07:03:08;;;;;;;8.40;0.80;;;;;;;23.01;100.00;100137.36;104637;1263;73426;-48
2023/07/16 07:05:36;;;;;;;0.40;0.40;;;;;;;23.06;100.00;100140.24;105343;1258;68036;-48
2023/07/16 07:08:04;;;;;;;0.40;0.30;;;;;;;23.09;100.00;100137.89;104877;1257;72675;-49
2023/07/16 07:10:32;;;;;;;0.60;0.30;;;;;;;23.13;100.00;100130.34;104759;1257;60075;-49
2023/07/16 07:13:00;;;;;;;0.40;0.30;;;;;;;23.19;100.00;100131.96;104841;1263;59797;-49
2023/07/16 07:15:27;;;;;;;1.90;0.50;;;;;;;23.25;100.00;100126.80;104827;1256;73096;-50
2023/07/16 07:17:54;;;;;;;1.60;0.40;;;;;;;23.31;100.00;100123.47;104906;1256;66514;-50
2023/07/16 07:20:22;;;;;;;0.30;0.30;;;;;;;23.39;100.00;100122.77;105076;1263;70872;-49
2023/07/16 07:22:49;;;;;;;0.70;0.30;;;;;;;23.46;100.00;100118.09;104870;1257;59694;-49
2023/07/16 07:25:18;;;;;;;1.50;0.40;;;;;;;23.52;100.00;100117.35;104694;1256;60031;-50
2023/07/16 07:27:45;;;;;;;0.70;0.40;;;;;;;23.58;100.00;100118.77;104666;1262;71413;-50
2023/07/16 07:30:15;;;;;;;1.80;0.30;;;;;;;23.63;100.00;100120.42;104535;1262;67517;-50
2023/07/16 07:32:43;;;;;;;0.40;0.30;;;;;;;23.69;100.00;100120.58;104705;1257;72698;-49
2023/07/16 07:35:10;;;;;;;0.30;0.30;;;;;;;23.74;100.00;100115.13;105207;1257;60604;-49
2023/07/16 07:37:38;;;;;;;0.40;0.40;;;;;;;23.80;100.00;100117.19;104621;1262;59658;-49
2023/07/16 07:40:07;;;;;;;0.50;0.30;;;;;;;23.84;100.00;100111.63;104766;1257;73601;-49
2023/07/16 07:42:34;;;;;;;0.40;0.40;;;;;;;23.88;100.00;100105.36;108835;1257;67933;-51
2023/07/16 07:45:03;;;;;;;0.50;0.40;;;;;;;23.93;100.00;100104.88;108695;1257;72913;-51
2023/07/16 07:47:30;;;;;;;1.40;0.40;;;;;;;23.99;100.00;100104.21;108787;1257;60019;-51
2023/07/16 07:49:57;;;;;;;3.00;0.40;;;;;;;24.06;100.00;100101.69;107629;1257;60506;-50
2023/07/16 07:52:27;;;;;;;0.70;0.40;;;;;;;24.14;100.00;100104.06;104082;1258;74309;-50
2023/07/16 07:54:54;;;;;;;0.40;0.30;;;;;;;24.21;100.00;100105.00;108729;1257;66667;-50
2023/07/16 07:57:22;;;;;;;0.40;0.40;;;;;;;24.28;100.00;100106.16;108749;1259;71877;-49
2023/07/16 07:59:51;;;;;;;0.40;0.40;;;;;;;24.34;100.00;100098.91;108716;1257;58779;-49
2023/07/16 08:02:21;;;;;;;0.70;0.50;;;;;;;24.41;100.00;100096.53;108707;1256;60408;-49
2023/07/16 08:04:48;;;;;;;0.40;0.40;;;;;;;24.50;100.00;100098.41;108594;1257;73892;-48
2023/07/16 08:07:15;;;;;;;0.40;0.40;;;;;;;24.58;100.00;100100.02;108748;1257;66652;-50
2023/07/16 08:09:43;;;;;;;0.60;0.40;;;;;;;24.65;100.00;100097.52;108649;1257;71424;-51
2023/07/16 08:12:10;;;;;;;0.40;0.30;;;;;;;24.72;100.00;100093.81;108696;1257;60236;-50
2023/07/16 08:14:41;;;;;;;2.00;0.40;;;;;;;24.81;100.00;100087.88;108754;1257;58889;-50
2023/07/16 08:17:09;;;;;;;2.80;0.70;;;;;;;24.89;100.00;100076.79;108656;1257;74803;-51
2023/07/16 08:19:38;;;;;;;2.40;0.40;;;;;;;24.96;100.00;100073.25;108747;1257;66668;-50
2023/07/16 08:22:05;;;;;;;0.40;0.30;;;;;;;24.97;100.00;100075.27;107349;1259;72652;-49
2023/07/16 08:24:32;;;;;;;2.10;0.40;;;;;;;25.00;100.00;100073.77;105068;1257;60562;-50
2023/07/16 08:27:00;;;;;;;0.50;0.30;;;;;;;25.02;100.00;100074.40;104847;1256;60628;-50
2023/07/16 08:29:27;;;;;;;1.10;0.40;;;;;;;25.02;100.00;100075.53;104799;1257;74325;-50
2023/07/16 08:31:55;;;;;;;0.40;0.40;;;;;;;24.99;100.00;100076.80;104808;1257;65170;-49
2023/07/16 08:34:22;;;;;;;0.40;0.30;;;;;;;24.96;100.00;100071.59;104951;1257;72611;-48
2023/07/16 08:36:49;;;;;;;0.40;0.40;;;;;;;24.95;100.00;100067.60;104785;1259;60561;-50
2023/07/16 08:39:19;;;;;;;0.30;0.30;;;;;;;24.98;100.00;100063.98;104861;1262;60430;-48
2023/07/16 08:41:48;;;;;;;0.40;0.30;;;;;;;25.03;100.00;100065.88;105507;1262;73840;-49
2023/07/16 08:44:15;;;;;;;0.60;0.40;;;;;;;25.05;100.00;100060.33;104765;1262;67507;-49
2023/07/16 08:46:42;;;;;;;0.40;0.40;;;;;;;25.04;100.00;100062.23;104849;1257;73298;-47
2023/07/16 08:49:10;;;;;;;0.90;0.40;;;;;;;25.02;100.00;100062.05;104782;1260;60562;-51
2023/07/16 08:51:37;;;;;;;0.30;0.30;;;;;;;25.04;100.00;100062.13;104876;1257;60575;-50
2023/07/16 08:54:05;;;;;;;0.70;0.30;;;;;;;25.05;100.00;100062.73;104709;1262;73755;-51
2023/07/16 08:56:32;;;;;;;2.50;0.40;;;;;;;25.07;100.00;100060.14;104738;1258;66500;-48
2023/07/16 08:59:00;;;;;;;2.40;0.40;;;;;;;25.06;100.00;100062.05;104581;1263;72758;-50
2023/07/16 09:01:27;;;;;;;1.50;0.90;;;;;;;25.07;100.00;100062.73;104832;1265;60578;-48
2023/07/16 09:03:55;;;;;;;2.40;0.40;;;;;;;25.07;100.00;100061.18;105550;1257;60908;-49
2023/07/16 09:06:22;;;;;;;2.50;0.30;;;;;;;25.11;100.00;100061.02;105158;1262;73427;-49
2023/07/16 09:08:50;;;;;;;0.80;0.40;;;;;;;25.15;100.00;100058.22;105218;1262;66353;-48
2023/07/16 09:11:21;;;;;;;0.40;0.40;;;;;;;25.21;100.00;100057.36;105158;1262;72403;-50
2023/07/16 09:13:49;;;;;;;0.40;0.30;;;;;;;25.27;100.00;100056.58;108684;1256;60012;-50
2023/07/16 09:16:20;;;;;;;1.20;0.50;;;;;;;25.31;100.00;100057.38;108813;1256;60050;-50
2023/07/16 09:18:48;;;;;;;1.40;0.40;;;;;;;25.38;100.00;100058.86;108878;1256;72693;-49
2023/07/16 09:21:15;;;;;;;0.50;0.50;;;;;;;25.46;100.00;100057.67;108790;1258;67866;-50
2023/07/16 09:23:44;;;;;;;0.90;0.50;;;;;;;25.51;100.00;100058.03;106403;1261;70493;-48
2023/07/16 09:26:11;;;;;;;1.00;0.40;;;;;;;25.55;100.00;100057.74;104895;1257;60496;-49
2023/07/16 09:28:39;;;;;;;0.40;0.40;;;;;;;25.58;100.00;100055.45;105084;1258;60648;-50
2023/07/16 09:31:07;;;;;;;0.50;0.40;;;;;;;25.58;100.00;100051.05;104905;1256;74714;-50
2023/07/16 09:33:35;;;;;;;2.40;0.50;;;;;;;25.55;100.00;100058.85;104956;1257;66963;-49
2023/07/16 09:36:03;;;;;;;0.90;0.50;;;;;;;25.52;100.00;100055.48;105020;1263;72598;-50
2023/07/16 09:38:31;;;;;;;0.40;0.40;;;;;;;25.51;100.00;100055.32;104970;1257;60979;-49
2023/07/16 09:40:59;;;;;;;0.60;0.50;;;;;;;25.54;100.00;100054.15;105866;1259;60535;-50
2023/07/16 09:43:26;;;;;;;0.50;0.50;;;;;;;25.61;100.00;100053.61;104809;1263;73792;-50
2023/07/16 09:45:54;;;;;;;0.50;0.40;;;;;;;25.67;100.00;100050.72;105067;1258;65798;-50
2023/07/16 09:48:21;;;;;;;1.90;0.50;;;;;;;25.72;100.00;100052.19;105188;1260;72189;-50
2023/07/16 09:50:53;;;;;;;0.70;0.50;;;;;;;25.74;100.00;100047.90;105164;1262;60514;-50
2023/07/16 09:53:23;;;;;;;0.50;0.50;;;;;;;25.77;100.00;100049.79;105062;1257;60414;-49
2023/07/16 09:55:55;;;;;;;2.10;0.40;;;;;;;25.81;100.00;100050.39;105563;1260;72662;-51
2023/07/16 09:58:22;;;;;;;0.50;0.40;;;;;;;25.87;100.00;100051.83;105067;1262;67709;-48
2023/07/16 10:00:50;;;;;;;0.70;0.50;;;;;;;25.94;100.00;100059.00;106384;1259;71496;-49
2023/07/16 10:03:17;;;;;;;2.40;0.50;;;;;;;25.97;100.00;100053.84;105583;1262;60565;-49
2023/07/16 10:05:45;;;;;;;0.70;0.50;;;;;;;26.00;100.00;100048.97;105172;1257;60488;-47
2023/07/16 10:08:17;;;;;;;0.50;0.50;;;;;;;26.04;100.00;100049.80;105012;1262;73785;-49
2023/07/16 10:10:53;;;;;;;2.30;0.40;;;;;;;26.12;100.00;100052.28;105063;1260;66695;-48
2023/07/16 10:13:22;;;;;;;1.20;0.40;;;;;;;26.20;100.00;100054.84;105116;1257;71908;-49
2023/07/16 10:15:53;;;;;;;0.40;0.40;;;;;;;26.28;100.00;100051.93;105141;1263;60378;-50
2023/07/16 10:18:27;;;;;;;2.70;0.50;;;;;;;26.35;100.00;100050.93;105133;1257;60588;-48
2023/07/16 10:21:08;;;;;;;0.50;0.50;;;;;;;26.42;100.00;100049.16;105174;1261;73772;-48
2023/07/16 10:23:43;;;;;;;0.60;0.50;;;;;;;26.42;100.00;100046.77;106391;1257;67661;-49
2023/07/16 10:26:12;;;;;;;0.60;0.50;;;;;;;26.35;100.00;100044.06;105171;1260;70786;-48
2023/07/16 10:28:45;;;;;;;0.40;0.40;;;;;;;26.28;100.00;100042.73;105062;1262;61000;-48
2023/07/16 10:31:25;;;;;;;1.10;0.90;;;;;;;26.27;100.00;100045.12;105658;1263;61106;-49
2023/07/16 10:33:59;;;;;;;1.20;0.60;;;;;;;26.28;100.00;100045.70;105511;1257;75506;-49
2023/07/16 10:36:26;;;;;;;0.90;0.60;;;;;;;26.29;100.00;100044.83;105030;1263;66279;-49
2023/07/16 10:38:54;;;;;;;0.50;0.40;;;;;;;26.33;100.00;100045.48;105160;1260;71661;-49
2023/07/16 10:41:21;;;;;;;1.10;0.40;;;;;;;26.42;100.00;100044.59;105176;1258;60654;-49
2023/07/16 10:43:49;;;;;;;1.00;0.50;;;;;;;26.51;100.00;100049.48;105054;1256;60575;-51
2023/07/16 10:46:20;;;;;;;0.50;0.40;;;;;;;26.60;100.00;100045.67;105042;1263;73784;-51
2023/07/16 10:48:48;;;;;;;1.10;0.60;;;;;;;26.64;100.00;100043.55;104975;1257;67893;-49
2023/07/16 10:51:16;;;;;;;0.80;0.50;;;;;;;26.62;100.00;100047.13;105109;1261;71310;-49
2023/07/16 10:53:43;;;;;;;1.20;0.50;;;;;;;26.57;100.00;100049.70;108724;1257;59477;-50
2023/07/16 10:56:11;;;;;;;3.20;0.50;;;;;;;26.51;100.00;100047.63;108819;1256;60039;-50
2023/07/16 10:58:38;;;;;;;0.40;0.40;;;;;;;26.45;100.00;100052.89;108839;1257;73804;-51
2023/07/16 11:01:05;;;;;;;0.50;0.40;;;;;;;26.38;100.00;100054.31;108774;1256;68374;-51
2023/07/16 11:03:34;;;;;;;1.00;0.50;;;;;;;26.32;100.00;100055.33;108800;1259;70984;-50
2023/07/16 11:06:07;;;;;;;1.40;0.50;;;;;;;26.29;100.00;100055.20;108826;1256;59993;-50
2023/07/16 11:08:34;;;;;;;0.70;0.50;;;;;;;26.22;100.00;100053.91;108859;1262;58761;-49
2023/07/16 11:11:02;;;;;;;0.60;0.50;;;;;;;26.15;100.00;100053.14;108827;1258;73257;-49
2023/07/16 11:13:31;;;;;;;0.90;0.40;;;;;;;26.15;100.00;100051.55;108849;1262;66758;-49
2023/07/16 11:16:08;;;;;;;0.50;0.40;;;;;;;26.15;100.00;100051.54;108831;1257;71390;-49